Terminal Aerodrome Forecast
Issued by NWS

Home | Current Version | Previous Version | Text Only | Print | Product List | Glossary On
Versions: 1 2 3 4 5 6 7 8 9 10 11 12 13 14 15 16 17 18 19 20 21 22 23
000
FTUS44 KTSA 222300
TAFXNA
TAF
KXNA 222339Z 2300/2324 26008KT 6SM -RA BR SCT015 OVC025
     FM230400 29005KT P6SM SCT025 BKN150
     FM231800 30007KT P6SM BKN100=

USA.gov is the U.S. government's official web portal to all federal, state and local government web resources and services.